Time;durP1;ratioP1;P1;durP2;ratioP2;P2;SDS_P1;SDS_P2;PMS_P1;PMS_P2;Temp;Humidity;BMP_temperature;BMP_pressure;BME280_temperature;BME280_humidity;BME280_pressure;Samples;Min_cycle;Max_cycle;Signal;HPM_P1;HPM_P2
2024/03/02 00:01:29;;;;;;;21.60;9.90;;;;;;;6.25;84.92;96053.30;108643;1276;25410;-76
2024/03/02 00:04:04;;;;;;;12.90;7.30;;;;;;;5.98;84.69;96050.73;108591;1270;22516;-75
2024/03/02 00:06:38;;;;;;;11.60;6.40;;;;;;;5.92;85.53;96048.29;108610;1276;22724;-75
2024/03/02 00:09:12;;;;;;;13.30;7.60;;;;;;;5.92;85.54;96047.61;108630;1270;25291;-75
2024/03/02 00:11:43;;;;;;;14.00;6.90;;;;;;;6.02;86.52;96048.40;108637;1274;24244;-75
2024/03/02 00:14:15;;;;;;;14.50;7.70;;;;;;;6.14;86.46;96052.88;108611;1269;23384;-75
2024/03/02 00:16:48;;;;;;;14.20;6.90;;;;;;;6.14;86.26;96053.98;108601;1276;22570;-75
2024/03/02 00:19:24;;;;;;;12.30;6.20;;;;;;;6.06;85.79;96048.40;108626;1272;22680;-75
2024/03/02 00:21:57;;;;;;;11.40;6.50;;;;;;;5.90;85.83;96039.90;108614;1272;22550;-75
2024/03/02 00:24:35;;;;;;;12.50;7.70;;;;;;;5.99;86.91;96041.18;108654;1275;24373;-76
2024/03/02 00:27:11;;;;;;;15.60;7.80;;;;;;;5.99;86.23;96042.44;108649;1273;22556;-75
2024/03/02 00:29:43;;;;;;;14.70;6.60;;;;;;;5.77;86.13;96037.88;108648;1276;25332;-75
2024/03/02 00:32:17;;;;;;;10.40;6.20;;;;;;;5.93;87.60;96034.59;108635;1276;27526;-75
2024/03/02 00:34:51;;;;;;;11.30;5.60;;;;;;;6.21;88.16;96036.40;108631;1269;25479;-75
2024/03/02 00:37:28;;;;;;;11.40;5.80;;;;;;;6.29;87.36;96031.71;108621;1276;23286;-75
2024/03/02 00:40:05;;;;;;;13.60;5.90;;;;;;;6.24;87.46;96035.52;108626;1269;23457;-75
2024/03/02 00:42:38;;;;;;;10.80;5.60;;;;;;;6.22;87.33;96033.41;108641;1270;22667;-75
2024/03/02 00:45:11;;;;;;;8.40;4.40;;;;;;;6.28;87.80;96035.61;108543;1274;22531;-76
2024/03/02 00:47:45;;;;;;;8.40;4.20;;;;;;;6.44;88.29;96031.23;108635;1275;22839;-75
2024/03/02 00:50:22;;;;;;;13.80;6.30;;;;;;;6.51;87.54;96033.85;108643;1269;22522;-75
2024/03/02 00:52:58;;;;;;;10.70;6.30;;;;;;;6.20;86.98;96031.04;108651;1269;22831;-75
2024/03/02 00:55:38;;;;;;;9.80;5.80;;;;;;;6.23;87.75;96027.88;108578;1274;23901;-75
2024/03/02 00:58:07;;;;;;;;;;;;;;;6.31;87.85;96026.07;108668;1276;25320;-75
2024/03/02 01:00:41;;;;;;;10.30;6.10;;;;;;;6.31;87.73;96027.33;108624;1276;22931;-76
2024/03/02 01:03:12;;;;;;;10.50;5.40;;;;;;;6.33;87.77;96027.77;108632;1270;22765;-75
2024/03/02 01:05:50;;;;;;;8.70;5.00;;;;;;;6.30;87.82;96025.13;108649;1276;22507;-75
2024/03/02 01:08:21;;;;;;;10.20;4.60;;;;;;;6.29;87.89;96020.02;108691;1276;22539;-75
2024/03/02 01:10:59;;;;;;;8.20;5.30;;;;;;;6.31;88.05;96024.48;108573;1275;25418;-76
2024/03/02 01:13:33;;;;;;;9.90;6.20;;;;;;;6.35;88.09;96023.98;108721;1276;22494;-75
2024/03/02 01:16:05;;;;;;;9.60;5.00;;;;;;;6.37;88.14;96023.49;108587;1276;22518;-75
2024/03/02 01:18:41;;;;;;;8.40;4.80;;;;;;;6.35;87.75;96022.07;108649;1276;23284;-75
2024/03/02 01:21:14;;;;;;;9.80;5.20;;;;;;;6.30;87.80;96017.23;108554;1276;24509;-75
2024/03/02 01:23:49;;;;;;;8.70;5.40;;;;;;;6.38;88.17;96022.23;108595;1276;22537;-75
2024/03/02 01:26:20;;;;;;;10.30;5.20;;;;;;;6.42;88.27;96022.16;108605;1276;22522;-75
2024/03/02 01:28:57;;;;;;;9.90;5.20;;;;;;;6.46;88.39;96018.25;108561;1276;22514;-75
2024/03/02 01:31:33;;;;;;;10.30;4.30;;;;;;;6.49;88.25;96017.42;108565;1276;22831;-75
2024/03/02 01:34:09;;;;;;;9.00;5.30;;;;;;;6.41;87.48;96012.00;108636;1276;22644;-75
2024/03/02 01:36:44;;;;;;;9.50;5.40;;;;;;;6.35;87.70;96007.66;108639;1273;23811;-75
2024/03/02 01:39:23;;;;;;;11.80;5.80;;;;;;;6.40;88.07;96006.05;108613;1276;22532;-75
2024/03/02 01:41:58;;;;;;;12.60;6.20;;;;;;;6.40;88.00;96005.84;108585;1276;22533;-75
2024/03/02 01:44:29;;;;;;;9.90;4.90;;;;;;;6.32;87.54;95997.27;108575;1275;22550;-76
2024/03/02 01:47:07;;;;;;;10.00;5.10;;;;;;;6.32;88.12;95990.54;108608;1276;22522;-75
2024/03/02 01:49:42;;;;;;;13.10;6.40;;;;;;;6.40;88.31;96000.53;108600;1276;25487;-75
2024/03/02 01:52:18;;;;;;;11.20;6.30;;;;;;;6.16;87.24;95990.92;108587;1273;23669;-75
2024/03/02 01:54:51;;;;;;;11.00;6.40;;;;;;;5.96;87.28;95992.52;108655;1273;22518;-75
2024/03/02 01:57:22;;;;;;;11.30;5.20;;;;;;;5.99;88.13;95994.20;108604;1269;22528;-75
2024/03/02 01:59:56;;;;;;;8.50;4.80;;;;;;;5.96;88.14;95987.15;108605;1269;22628;-75
2024/03/02 02:02:30;;;;;;;12.70;6.50;;;;;;;5.94;87.91;95992.67;108625;1269;22979;-76
2024/03/02 02:05:02;;;;;;;16.10;7.40;;;;;;;5.71;87.51;95986.85;108633;1276;24199;-75
2024/03/02 02:07:36;;;;;;;11.50;5.50;;;;;;;5.59;88.08;95982.95;108625;1272;22528;-75
2024/03/02 02:10:13;;;;;;;11.70;5.20;;;;;;;5.65;88.92;95989.38;108611;1276;22593;-75
2024/03/02 02:12:48;;;;;;;11.20;5.30;;;;;;;5.62;88.42;95997.57;108632;1276;22489;-75
2024/03/02 02:15:32;;;;;;;11.00;5.90;;;;;;;5.47;88.02;95993.19;108628;1276;22522;-76
2024/03/02 02:18:03;;;;;;;12.80;7.20;;;;;;;5.48;89.23;95991.50;108601;1269;25541;-75
2024/03/02 02:20:40;;;;;;;10.90;6.00;;;;;;;5.51;88.74;95990.93;108544;1276;22523;-75
2024/03/02 02:23:13;;;;;;;10.00;5.20;;;;;;;5.46;88.97;95990.39;108618;1276;23779;-75
2024/03/02 02:25:48;;;;;;;9.70;5.50;;;;;;;5.50;89.08;95985.05;108672;1274;22541;-76
2024/03/02 02:28:19;;;;;;;11.80;5.00;;;;;;;5.56;89.55;95980.68;108639;1269;22866;-75
2024/03/02 02:30:53;;;;;;;8.50;4.90;;;;;;;5.71;90.14;95981.33;108633;1276;23811;-76
2024/03/02 02:33:30;;;;;;;10.80;5.80;;;;;;;5.70;89.63;95970.02;108647;1276;22514;-75
2024/03/02 02:36:02;;;;;;;12.00;5.40;;;;;;;5.73;89.40;95975.96;108622;1276;22518;-75
2024/03/02 02:38:38;;;;;;;12.00;5.70;;;;;;;5.50;88.55;95969.79;108615;1276;24210;-75
2024/03/02 02:41:15;;;;;;;13.20;5.70;;;;;;;5.47;89.42;95964.26;108598;1276;25201;-75
2024/03/02 02:43:51;;;;;;;11.90;5.70;;;;;;;5.48;89.39;95962.89;108625;1276;22641;-75
2024/03/02 02:46:25;;;;;;;12.30;5.00;;;;;;;5.44;89.51;95965.09;108596;1272;22519;-75
2024/03/02 02:48:57;;;;;;;15.20;6.60;;;;;;;5.39;89.47;95962.58;108675;1276;22513;-75
2024/03/02 02:51:31;;;;;;;13.70;6.80;;;;;;;5.35;89.57;95960.59;108590;1276;23411;-76
2024/03/02 02:54:05;;;;;;;10.30;6.20;;;;;;;5.41;90.22;95966.05;108635;1271;22511;-75
2024/03/02 02:56:36;;;;;;;11.10;5.40;;;;;;;5.50;90.41;95965.23;108651;1276;22598;-76
2024/03/02 02:59:08;;;;;;;8.20;5.10;;;;;;;5.63;90.93;95971.80;108627;1269;22527;-76
2024/03/02 03:01:41;;;;;;;8.00;5.10;;;;;;;5.70;90.83;95973.07;108620;1276;24193;-76
2024/03/02 03:04:15;;;;;;;11.40;6.10;;;;;;;5.77;90.93;95970.60;108655;1272;22521;-76
2024/03/02 03:06:48;;;;;;;11.40;6.40;;;;;;;5.87;91.01;95971.06;108609;1274;22689;-76
2024/03/02 03:09:22;;;;;;;11.60;6.40;;;;;;;5.90;90.68;95973.05;108567;1269;25140;-75
2024/03/02 03:11:56;;;;;;;11.40;5.90;;;;;;;5.90;90.70;95967.09;108628;1276;25259;-76
2024/03/02 03:14:31;;;;;;;13.00;6.70;;;;;;;5.90;90.14;95970.14;108623;1269;23917;-76
2024/03/02 03:17:03;;;;;;;11.70;6.30;;;;;;;5.76;89.60;95967.39;108621;1276;22528;-75
2024/03/02 03:19:37;;;;;;;10.30;6.10;;;;;;;5.69;90.19;95965.29;108578;1276;22523;-76
2024/03/02 03:22:10;;;;;;;16.70;7.70;;;;;;;5.78;90.70;95966.88;108625;1274;23907;-75
2024/03/02 03:24:48;;;;;;;10.70;5.70;;;;;;;5.73;90.14;95962.65;108598;1269;22954;-76
2024/03/02 03:27:24;;;;;;;12.40;5.70;;;;;;;5.75;90.51;95965.48;108582;1276;25417;-76
2024/03/02 03:29:55;;;;;;;12.40;5.30;;;;;;;5.81;90.67;95968.29;108642;1276;22526;-76
2024/03/02 03:32:29;;;;;;;11.80;6.40;;;;;;;5.85;90.50;95970.91;108597;1276;22518;-75
2024/03/02 03:35:00;;;;;;;11.30;6.30;;;;;;;5.86;90.43;95967.55;108603;1274;22510;-76
2024/03/02 03:37:34;;;;;;;12.10;7.10;;;;;;;5.88;90.59;95972.55;108606;1276;22532;-76
2024/03/02 03:40:10;;;;;;;8.20;5.20;;;;;;;5.75;89.76;95969.60;108621;1276;24427;-76
2024/03/02 03:42:41;;;;;;;11.40;5.60;;;;;;;5.60;90.00;95965.69;108619;1276;23319;-76
2024/03/02 03:45:12;;;;;;;13.90;6.30;;;;;;;5.70;91.01;95970.02;108634;1276;22574;-76
2024/03/02 03:47:48;;;;;;;11.90;6.50;;;;;;;5.80;90.92;95963.70;108661;1269;22553;-76
2024/03/02 03:50:24;;;;;;;9.80;6.00;;;;;;;5.91;91.14;95961.14;108695;1276;22533;-75
2024/03/02 03:52:57;;;;;;;11.50;6.00;;;;;;;6.06;91.45;95960.05;108623;1260;25424;-75
2024/03/02 03:55:31;;;;;;;9.70;5.50;;;;;;;6.14;91.29;95953.30;108631;1269;22803;-76
2024/03/02 03:58:08;;;;;;;9.60;5.00;;;;;;;6.17;90.88;95953.08;108673;1276;22515;-75
2024/03/02 04:00:43;;;;;;;13.50;6.20;;;;;;;6.16;90.69;95957.87;108672;1269;24500;-76
2024/03/02 04:03:15;;;;;;;11.70;6.80;;;;;;;6.16;90.35;95953.18;108656;1276;22546;-76
2024/03/02 04:05:46;;;;;;;14.30;10.00;;;;;;;6.17;90.47;95954.81;108640;1269;22515;-76
2024/03/02 04:08:18;;;;;;;16.00;9.00;;;;;;;6.01;89.71;95954.58;108638;1276;22543;-76
2024/03/02 04:10:49;;;;;;;9.10;5.70;;;;;;;5.97;90.38;95960.52;108634;1276;22532;-76
2024/03/02 04:13:23;;;;;;;8.60;5.20;;;;;;;6.05;90.78;95959.84;108627;1269;23690;-76
2024/03/02 04:16:00;;;;;;;22.60;12.70;;;;;;;6.12;90.74;95961.73;108710;1272;22522;-76
2024/03/02 04:18:33;;;;;;;16.50;9.50;;;;;;;6.03;90.04;95959.04;108672;1276;22474;-76
2024/03/02 04:21:07;;;;;;;20.30;12.80;;;;;;;5.95;89.89;95958.11;108639;1273;22511;-76
2024/03/02 04:23:40;;;;;;;19.20;11.50;;;;;;;5.81;90.00;95956.19;108658;1276;22517;-76
2024/03/02 04:26:12;;;;;;;31.80;20.10;;;;;;;5.77;89.99;95954.40;108689;1268;22657;-76
2024/03/02 04:28:43;;;;;;;19.00;12.50;;;;;;;5.73;90.03;95956.13;108630;1276;22517;-76
2024/03/02 04:31:15;;;;;;;13.90;8.50;;;;;;;5.72;90.30;95958.81;108643;1274;22623;-76
2024/03/02 04:33:55;;;;;;;15.70;10.80;;;;;;;5.75;90.67;95955.39;108734;1269;22572;-76
2024/03/02 04:36:27;;;;;;;14.90;9.40;;;;;;;5.78;90.71;95955.67;108713;1275;22531;-76
2024/03/02 04:39:00;;;;;;;20.00;10.60;;;;;;;5.82;90.77;95955.87;108724;1275;22517;-76
2024/03/02 04:41:32;;;;;;;18.30;11.40;;;;;;;5.83;90.64;95965.08;108712;1275;22704;-75
2024/03/02 04:44:03;;;;;;;17.10;9.80;;;;;;;5.78;90.35;95962.92;108730;1273;24596;-75
2024/03/02 04:46:35;;;;;;;26.20;16.50;;;;;;;5.74;90.41;95963.86;108759;1269;22518;-75
2024/03/02 04:49:09;;;;;;;15.80;7.70;;;;;;;5.66;90.40;95963.72;108740;1272;22479;-75
2024/03/02 04:51:42;;;;;;;12.30;7.60;;;;;;;5.62;90.57;95966.52;108620;1272;146800;-76
2024/03/02 04:54:19;;;;;;;12.60;6.50;;;;;;;5.61;91.04;95961.76;108746;1275;22577;-75
2024/03/02 04:56:57;;;;;;;11.10;6.50;;;;;;;5.72;91.66;95962.60;108820;1275;26143;-75
2024/03/02 04:59:30;;;;;;;9.10;5.70;;;;;;;5.79;91.66;95964.34;108715;1275;22523;-75
2024/03/02 05:02:06;;;;;;;24.70;14.10;;;;;;;5.90;91.80;95967.14;108745;1269;22575;-75
2024/03/02 05:04:39;;;;;;;35.20;17.80;;;;;;;5.72;90.31;95970.48;108738;1275;24192;-76
2024/03/02 05:07:15;;;;;;;15.40;9.40;;;;;;;5.62;90.77;95972.68;108775;1275;24011;-75
2024/03/02 05:09:50;;;;;;;17.20;10.40;;;;;;;5.67;91.43;95977.23;108751;1275;25612;-75
2024/03/02 05:12:47;;;;;;;19.90;10.30;;;;;;;5.65;90.98;95979.90;108820;1273;22515;-76
2024/03/02 05:15:23;;;;;;;18.70;10.30;;;;;;;5.54;90.87;95981.21;108812;1273;22552;-76
2024/03/02 05:17:59;;;;;;;12.30;7.90;;;;;;;5.52;90.80;95979.21;108822;1273;24318;-75
2024/03/02 05:20:38;;;;;;;18.10;9.60;;;;;;;5.53;91.32;95978.42;108842;1269;25890;-75
2024/03/02 05:23:11;;;;;;;12.90;8.40;;;;;;;5.57;91.44;95983.57;108757;1273;22983;-76
2024/03/02 05:25:45;;;;;;;13.00;7.40;;;;;;;5.62;91.68;95986.84;108859;1266;22908;-75
2024/03/02 05:28:18;;;;;;;12.30;7.00;;;;;;;5.67;91.47;95987.95;108843;1273;22516;-76
2024/03/02 05:30:51;;;;;;;15.70;7.90;;;;;;;5.62;91.16;95984.00;108897;1269;24278;-75
2024/03/02 05:33:24;;;;;;;13.90;8.20;;;;;;;5.54;91.08;95980.73;108920;1273;23961;-75
2024/03/02 05:35:55;;;;;;;13.90;7.60;;;;;;;5.50;91.27;95981.95;108923;1273;22761;-75
2024/03/02 05:38:26;;;;;;;12.70;6.10;;;;;;;5.52;91.84;95977.48;108880;1273;24059;-75
2024/03/02 05:41:03;;;;;;;9.70;5.40;;;;;;;5.61;92.07;95979.05;108865;1273;22636;-75
2024/03/02 05:43:36;;;;;;;11.30;5.80;;;;;;;5.69;92.11;95984.70;108839;1267;22564;-76
2024/03/02 05:46:15;;;;;;;9.60;6.60;;;;;;;5.77;92.35;95991.75;108837;1269;22637;-76
2024/03/02 05:48:46;;;;;;;11.40;6.90;;;;;;;5.83;92.32;95991.75;108870;1273;22525;-76
2024/03/02 05:51:18;;;;;;;11.90;7.20;;;;;;;5.91;92.35;95997.50;108882;1273;22679;-76
2024/03/02 05:53:52;;;;;;;17.70;8.90;;;;;;;5.99;92.22;96002.83;108913;1273;26119;-75
2024/03/02 05:56:24;;;;;;;12.40;7.30;;;;;;;5.81;91.07;96009.53;108871;1273;22767;-75
2024/03/02 05:59:08;;;;;;;11.20;5.90;;;;;;;5.66;91.09;96010.77;108908;1266;25426;-76
2024/03/02 06:01:46;;;;;;;9.80;6.20;;;;;;;5.71;92.01;96009.31;108847;1272;22555;-75
2024/03/02 06:04:17;;;;;;;11.70;6.00;;;;;;;5.82;92.34;96010.06;108819;1269;22572;-75
2024/03/02 06:06:54;;;;;;;12.30;7.10;;;;;;;5.85;92.04;96011.10;108860;1273;22516;-75
2024/03/02 06:09:28;;;;;;;10.60;6.30;;;;;;;5.87;92.10;96007.95;108816;1273;22514;-75
2024/03/02 06:12:01;;;;;;;10.50;6.80;;;;;;;5.99;92.53;96005.52;108816;1266;22527;-75
2024/03/02 06:14:40;;;;;;;11.70;7.10;;;;;;;6.12;92.65;96003.36;108823;1273;22820;-75
2024/03/02 06:17:14;;;;;;;12.80;7.70;;;;;;;6.25;92.99;96008.83;108863;1270;24209;-75
2024/03/02 06:19:51;;;;;;;14.20;9.70;;;;;;;6.36;92.84;96008.06;108863;1272;22518;-75
2024/03/02 06:22:24;;;;;;;13.30;7.60;;;;;;;6.46;92.90;96002.79;108826;1272;23903;-75
2024/03/02 06:24:56;;;;;;;13.10;7.60;;;;;;;6.54;92.80;96005.71;108803;1273;22542;-75
2024/03/02 06:27:29;;;;;;;12.90;8.00;;;;;;;6.62;92.76;96004.59;108890;1272;23813;-75
2024/03/02 06:30:03;;;;;;;18.30;9.10;;;;;;;6.65;92.49;96006.38;108833;1272;23787;-75
2024/03/02 06:32:38;;;;;;;13.30;8.20;;;;;;;6.55;92.01;96006.13;108813;1272;24288;-75
2024/03/02 06:35:12;;;;;;;13.20;7.90;;;;;;;6.55;92.22;96002.87;108869;1269;22520;-75
2024/03/02 06:37:50;;;;;;;11.00;6.80;;;;;;;6.63;92.67;96003.27;108821;1269;22849;-75
2024/03/02 06:40:25;;;;;;;9.70;5.60;;;;;;;6.71;92.61;96004.41;108806;1272;22717;-75
2024/03/02 06:42:58;;;;;;;13.30;7.60;;;;;;;6.78;92.76;96009.61;108863;1265;24247;-75
2024/03/02 06:45:35;;;;;;;16.70;9.20;;;;;;;6.86;92.85;96005.67;108856;1273;22736;-75
2024/03/02 06:48:10;;;;;;;16.60;9.20;;;;;;;6.92;92.55;96010.36;108841;1272;25483;-75
2024/03/02 06:50:42;;;;;;;15.80;8.10;;;;;;;6.84;92.14;96011.64;108788;1266;22542;-76
2024/03/02 06:53:13;;;;;;;17.40;9.50;;;;;;;6.72;92.01;96003.61;108875;1270;22524;-76
2024/03/02 06:55:45;;;;;;;12.50;7.50;;;;;;;6.70;92.48;96000.52;108886;1272;22529;-76
2024/03/02 06:58:18;;;;;;;15.10;7.90;;;;;;;6.81;92.95;95997.16;108774;1266;24307;-76
2024/03/02 07:00:52;;;;;;;14.90;8.60;;;;;;;6.96;93.15;96004.48;108830;1269;22982;-76
2024/03/02 07:03:26;;;;;;;18.00;9.00;;;;;;;7.07;93.12;96005.29;108813;1273;22504;-76
2024/03/02 07:06:03;;;;;;;14.50;8.30;;;;;;;7.18;93.12;96009.45;108875;1269;22573;-76
2024/03/02 07:08:36;;;;;;;11.60;7.20;;;;;;;7.22;92.82;96010.87;108883;1269;22514;-75
2024/03/02 07:11:07;;;;;;;12.20;7.50;;;;;;;7.21;92.50;96011.40;108818;1269;22536;-74
2024/03/02 07:13:39;;;;;;;13.80;8.40;;;;;;;7.24;92.33;96016.44;108840;1268;24829;-74
2024/03/02 07:16:29;;;;;;;14.20;8.80;;;;;;;7.26;92.15;96015.90;108849;1269;22520;-74
2024/03/02 07:19:03;;;;;;;12.70;7.80;;;;;;;7.27;92.04;96015.46;108888;1260;25495;-74
2024/03/02 07:21:36;;;;;;;10.90;7.70;;;;;;;7.31;91.73;96017.81;108856;1269;22519;-74
2024/03/02 07:24:13;;;;;;;12.80;7.70;;;;;;;7.32;91.80;96024.35;108830;1269;24237;-74
2024/03/02 07:26:46;;;;;;;10.90;7.90;;;;;;;7.38;91.69;96028.02;108800;1273;25214;-74
2024/03/02 07:29:20;;;;;;;14.10;9.30;;;;;;;7.42;91.58;96031.37;108823;1269;24234;-74
2024/03/02 07:31:53;;;;;;;11.90;8.30;;;;;;;7.47;91.47;96032.94;108809;1269;22541;-74
2024/03/02 07:34:25;;;;;;;13.50;7.90;;;;;;;7.53;91.50;96041.61;108846;1269;23043;-74
2024/03/02 07:36:57;;;;;;;12.70;8.60;;;;;;;7.61;91.51;96042.45;108867;1273;22476;-74
2024/03/02 07:39:30;;;;;;;14.30;8.60;;;;;;;7.70;91.49;96046.73;108762;1266;22522;-74
2024/03/02 07:42:06;;;;;;;14.40;9.40;;;;;;;7.80;91.80;96050.79;108706;1266;22525;-74
2024/03/02 07:44:42;;;;;;;12.10;7.80;;;;;;;7.89;91.56;96056.38;108734;1273;22531;-74
2024/03/02 07:47:16;;;;;;;11.60;7.50;;;;;;;7.92;91.20;96057.37;108935;1266;24317;-74
2024/03/02 07:49:50;;;;;;;13.00;8.90;;;;;;;7.93;91.14;96053.08;108731;1274;22524;-74
2024/03/02 07:52:22;;;;;;;14.10;9.30;;;;;;;8.00;91.30;96054.81;108888;1270;22504;-74
2024/03/02 07:54:55;;;;;;;14.60;9.10;;;;;;;8.10;91.33;96054.38;108892;1269;22534;-74
2024/03/02 07:57:33;;;;;;;13.80;8.60;;;;;;;8.16;91.26;96056.66;108878;1266;25402;-74
2024/03/02 08:00:06;;;;;;;13.20;7.90;;;;;;;8.23;91.11;96058.56;108909;1272;25414;-74
2024/03/02 08:02:44;;;;;;;12.70;9.00;;;;;;;8.25;90.89;96054.52;108812;1273;23886;-74
2024/03/02 08:05:18;;;;;;;13.90;8.80;;;;;;;8.29;90.90;96053.50;108851;1266;23667;-74
2024/03/02 08:07:53;;;;;;;11.70;7.70;;;;;;;8.33;90.83;96053.32;108853;1270;25282;-73
2024/03/02 08:10:25;;;;;;;12.90;6.10;;;;;;;8.38;90.53;96052.87;108871;1273;25989;-74
2024/03/02 08:12:56;;;;;;;13.10;7.40;;;;;;;8.44;90.32;96060.27;108870;1270;22920;-73
2024/03/02 08:15:30;;;;;;;12.90;7.30;;;;;;;8.52;90.17;96060.57;108883;1266;24260;-73
2024/03/02 08:18:04;;;;;;;11.40;7.00;;;;;;;8.51;89.90;96062.48;108866;1273;22533;-73
2024/03/02 08:20:38;;;;;;;13.00;6.80;;;;;;;8.48;89.73;96068.00;108862;1271;23642;-73
2024/03/02 08:23:17;;;;;;;11.70;6.80;;;;;;;8.48;89.70;96068.33;108801;1273;22923;-73
2024/03/02 08:25:53;;;;;;;12.30;8.10;;;;;;;8.47;89.54;96065.64;108897;1266;23313;-74
2024/03/02 08:28:24;;;;;;;12.20;7.60;;;;;;;8.47;89.39;96067.91;108921;1273;22515;-74
2024/03/02 08:30:58;;;;;;;11.00;6.60;;;;;;;8.49;89.17;96068.68;108868;1273;22575;-74
2024/03/02 08:33:32;;;;;;;14.40;8.00;;;;;;;8.52;89.09;96067.80;108900;1273;23129;-74
2024/03/02 08:36:09;;;;;;;16.20;7.90;;;;;;;8.55;88.90;96065.82;108890;1269;22876;-74
2024/03/02 08:38:44;;;;;;;10.40;7.10;;;;;;;8.58;88.76;96066.10;108884;1273;24181;-73
2024/03/02 08:41:20;;;;;;;15.60;9.30;;;;;;;8.62;88.61;96067.09;108815;1273;23970;-74
2024/03/02 08:43:57;;;;;;;12.90;7.80;;;;;;;8.61;88.46;96066.14;108900;1273;22518;-73
2024/03/02 08:46:28;;;;;;;17.30;8.60;;;;;;;8.59;88.38;96065.69;108694;1266;22761;-73
2024/03/02 08:49:12;;;;;;;11.60;7.00;;;;;;;8.64;88.30;96066.05;108786;1269;23077;-73
2024/03/02 08:51:54;;;;;;;15.50;8.60;;;;;;;8.71;88.20;96063.19;108831;1269;22516;-73
2024/03/02 08:54:29;;;;;;;11.90;7.80;;;;;;;8.76;88.11;96065.27;108794;1273;22513;-73
2024/03/02 08:57:01;;;;;;;11.90;7.10;;;;;;;8.77;87.88;96068.15;108828;1266;22491;-73
2024/03/02 08:59:34;;;;;;;13.70;7.30;;;;;;;8.79;87.74;96072.69;108829;1269;22520;-73
2024/03/02 09:02:11;;;;;;;9.30;6.40;;;;;;;8.78;87.50;96073.75;108778;1269;22512;-73
2024/03/02 09:04:46;;;;;;;13.50;7.90;;;;;;;8.77;87.37;96073.40;108882;1273;22519;-73
2024/03/02 09:07:23;;;;;;;14.60;8.40;;;;;;;8.79;87.34;96073.84;108865;1272;22506;-73
2024/03/02 09:09:57;;;;;;;15.50;10.20;;;;;;;8.83;87.27;96074.16;108857;1273;22512;-73
2024/03/02 09:12:34;;;;;;;20.20;10.40;;;;;;;8.85;87.15;96070.85;108820;1269;22676;-74
2024/03/02 09:15:07;;;;;;;14.30;8.60;;;;;;;8.88;87.14;96072.61;108831;1273;22505;-73
2024/03/02 09:17:39;;;;;;;16.40;8.60;;;;;;;8.86;86.99;96081.27;108828;1272;22519;-73
2024/03/02 09:20:15;;;;;;;13.90;9.50;;;;;;;8.86;86.80;96088.45;108740;1273;22561;-73
2024/03/02 09:22:48;;;;;;;15.90;10.40;;;;;;;8.84;86.87;96094.81;109475;1271;22514;-73
2024/03/02 09:25:24;;;;;;;16.90;9.70;;;;;;;8.81;86.53;96099.25;108816;1269;22511;-73
2024/03/02 09:28:00;;;;;;;15.00;9.10;;;;;;;8.75;86.52;96103.39;108795;1270;22514;-73
2024/03/02 09:30:33;;;;;;;15.30;9.60;;;;;;;8.71;86.47;96108.27;108782;1251;22938;-73
2024/03/02 09:33:07;;;;;;;13.90;9.30;;;;;;;8.71;86.56;96105.09;108845;1265;24000;-73
2024/03/02 09:35:38;;;;;;;14.70;8.60;;;;;;;8.70;86.50;96102.30;108798;1269;22510;-73
2024/03/02 09:38:12;;;;;;;14.00;8.80;;;;;;;8.70;86.63;96098.55;108926;1266;26011;-73
2024/03/02 09:40:45;;;;;;;15.20;9.60;;;;;;;8.77;86.88;96100.45;108936;1266;22681;-74
2024/03/02 09:43:19;;;;;;;17.80;11.40;;;;;;;8.83;87.20;96104.24;108889;1272;22520;-73
2024/03/02 09:45:57;;;;;;;18.20;10.60;;;;;;;8.89;87.51;96105.77;108868;1269;23062;-73
2024/03/02 09:48:30;;;;;;;15.00;9.90;;;;;;;8.98;87.70;96110.13;108794;1266;22511;-73
2024/03/02 09:51:07;;;;;;;14.60;10.00;;;;;;;9.02;87.68;96109.88;108849;1273;22518;-73
2024/03/02 09:53:40;;;;;;;16.80;10.30;;;;;;;9.06;87.93;96110.32;108819;1272;22598;-73
2024/03/02 09:56:12;;;;;;;14.80;9.20;;;;;;;9.16;88.40;96104.35;108973;1266;22494;-73
2024/03/02 09:58:48;;;;;;;12.20;7.80;;;;;;;9.26;88.68;96106.19;108793;1266;25264;-73
2024/03/02 10:01:22;;;;;;;11.80;8.40;;;;;;;9.37;88.41;96109.45;108616;1269;22504;-73
2024/03/02 10:03:56;;;;;;;12.50;9.20;;;;;;;9.37;88.15;96107.28;108876;1266;22525;-73
2024/03/02 10:06:33;;;;;;;14.20;9.80;;;;;;;9.38;88.27;96106.63;108737;1272;22504;-73
2024/03/02 10:09:05;;;;;;;15.00;8.20;;;;;;;9.42;88.29;96103.09;108742;1273;22526;-73
2024/03/02 10:11:39;;;;;;;14.10;7.90;;;;;;;9.49;88.18;96105.25;108811;1251;22511;-73
2024/03/02 10:14:15;;;;;;;12.40;7.60;;;;;;;9.59;88.11;96106.17;108854;1273;23839;-73
2024/03/02 10:16:49;;;;;;;13.60;8.90;;;;;;;9.69;87.94;96102.19;108800;1272;22653;-74
2024/03/02 10:19:26;;;;;;;15.10;8.50;;;;;;;9.76;87.97;96106.98;108855;1251;25272;-73
2024/03/02 10:21:59;;;;;;;17.00;8.70;;;;;;;9.76;87.89;96103.73;108738;1269;24004;-73
2024/03/02 10:24:44;;;;;;;13.60;9.20;;;;;;;9.80;87.95;96104.42;108757;1269;25400;-72
2024/03/02 10:27:24;;;;;;;15.20;10.20;;;;;;;9.86;88.34;96102.02;108627;1266;22509;-73
2024/03/02 10:30:00;;;;;;;16.30;9.90;;;;;;;9.92;88.26;96098.44;109764;1251;22567;-73
2024/03/02 10:32:35;;;;;;;14.80;8.90;;;;;;;9.97;88.08;96097.92;108639;1266;25955;-74
2024/03/02 10:35:16;;;;;;;14.50;8.60;;;;;;;10.03;88.16;96095.73;110522;1273;22315;-73
2024/03/02 10:37:50;;;;;;;14.60;9.60;;;;;;;10.09;87.90;96096.13;109000;1272;22521;-72
2024/03/02 10:40:33;;;;;;;16.70;9.90;;;;;;;10.13;87.94;96099.84;108826;1266;22564;-72
2024/03/02 10:43:13;;;;;;;14.90;10.10;;;;;;;10.08;87.70;96103.39;108739;1273;23214;-72
2024/03/02 10:45:43;;;;;;;;;;;;;;;10.01;87.59;96101.91;108716;1274;22504;-72
2024/03/02 10:48:21;;;;;;;16.60;10.70;;;;;;;9.96;87.63;96100.27;108775;1266;22508;-72
2024/03/02 10:50:54;;;;;;;15.90;10.70;;;;;;;9.95;87.73;96097.80;108664;1270;22551;-72
2024/03/02 10:53:32;;;;;;;18.60;11.70;;;;;;;9.97;87.78;96102.33;108739;1266;22526;-72
2024/03/02 10:56:19;;;;;;;16.70;11.40;;;;;;;9.97;87.73;96098.10;108719;1266;22515;-72
2024/03/02 10:58:56;;;;;;;18.20;11.20;;;;;;;10.05;88.01;96094.61;108666;1271;23873;-72
2024/03/02 11:01:32;;;;;;;17.20;12.20;;;;;;;10.22;88.16;96093.05;108705;1271;22569;-72
2024/03/02 11:04:09;;;;;;;18.20;12.20;;;;;;;10.37;88.07;96088.84;108679;1273;22511;-72
2024/03/02 11:06:51;;;;;;;14.90;10.60;;;;;;;10.53;88.01;96081.02;108741;1265;24034;-72
2024/03/02 11:09:27;;;;;;;17.30;10.70;;;;;;;10.65;87.70;96079.70;108815;1273;22538;-72
2024/03/02 11:12:05;;;;;;;15.30;10.40;;;;;;;10.71;87.45;96079.18;108769;1269;22508;-72
2024/03/02 11:14:44;;;;;;;13.90;9.30;;;;;;;10.74;87.18;96075.74;108847;1273;23861;-72
2024/03/02 11:17:23;;;;;;;13.20;9.10;;;;;;;10.86;87.55;96073.71;108829;1266;22519;-72
2024/03/02 11:19:55;;;;;;;27.20;18.60;;;;;;;11.03;87.76;96070.77;108787;1273;24246;-72
2024/03/02 11:22:28;;;;;;;15.30;10.30;;;;;;;11.12;87.36;96063.96;108896;1266;22524;-72
2024/03/02 11:25:10;;;;;;;14.40;9.70;;;;;;;11.22;86.90;96061.80;108896;1269;23839;-71
2024/03/02 11:28:05;;;;;;;14.80;10.40;;;;;;;11.33;86.87;96065.04;108864;1272;22511;-71
2024/03/02 11:30:54;;;;;;;15.30;10.10;;;;;;;11.41;86.71;96065.77;108958;1272;22554;-71
2024/03/02 11:33:30;;;;;;;13.40;8.90;;;;;;;11.50;86.39;96068.45;109047;1272;22536;-72
2024/03/02 11:36:06;;;;;;;12.40;8.90;;;;;;;11.49;85.86;96064.86;108977;1269;22528;-72
2024/03/02 11:38:47;;;;;;;13.60;10.00;;;;;;;11.58;85.78;96065.11;108945;1272;22530;-72
2024/03/02 11:41:18;;;;;;;17.60;12.00;;;;;;;11.70;85.76;96061.52;109068;1272;38398;-72
2024/03/02 11:43:55;;;;;;;31.70;23.20;;;;;;;11.77;85.26;96061.53;109100;1267;22561;-72
2024/03/02 11:46:31;;;;;;;24.50;19.60;;;;;;;11.84;85.03;96061.52;108980;1269;22522;-73
2024/03/02 11:49:06;;;;;;;20.10;16.70;;;;;;;11.95;84.70;96063.39;109018;1272;22484;-72
2024/03/02 11:51:40;;;;;;;20.20;13.70;;;;;;;12.03;84.15;96060.55;108966;1270;22622;-72
2024/03/02 11:54:13;;;;;;;20.70;14.90;;;;;;;12.09;83.53;96060.52;109089;1251;22514;-72
2024/03/02 11:56:46;;;;;;;21.30;16.30;;;;;;;12.15;83.40;96061.98;109023;1273;22568;-72
2024/03/02 11:59:20;;;;;;;19.70;13.30;;;;;;;12.19;83.09;96061.45;109026;1270;22522;-73